sensor_id;sensor_type;location;lat;lon;timestamp;pressure;altitude;pressure_sealevel;temperature;humidity
6208;BME280;3137;51.550;7.060;2022-10-29T00:00:54;50172.78;;;-142.65;82.86
6208;BME280;3137;51.550;7.060;2022-10-29T00:03:21;50170.78;;;-142.65;82.97
6208;BME280;3137;51.550;7.060;2022-10-29T00:06:02;50174.75;;;-142.65;83.13
6208;BME280;3137;51.550;7.060;2022-10-29T00:13:31;50168.78;;;-142.65;83.17
6208;BME280;3137;51.550;7.060;2022-10-29T00:18:24;50174.75;;;-142.65;83.35
6208;BME280;3137;51.550;7.060;2022-10-29T00:25:55;50168.78;;;-142.65;83.57
6208;BME280;3137;51.550;7.060;2022-10-29T00:33:14;50172.78;;;-142.65;84.25
6208;BME280;3137;51.550;7.060;2022-10-29T00:36:00;50174.75;;;-142.65;84.35
6208;BME280;3137;51.550;7.060;2022-10-29T00:38:26;50170.78;;;-142.65;83.86
6208;BME280;3137;51.550;7.060;2022-10-29T00:40:53;50168.78;;;-142.65;84.57
6208;BME280;3137;51.550;7.060;2022-10-29T00:45:52;50168.78;;;-142.65;84.81
6208;BME280;3137;51.550;7.060;2022-10-29T00:48:21;50170.78;;;-142.65;84.94
6208;BME280;3137;51.550;7.060;2022-10-29T00:50:48;50168.78;;;-142.65;85.09
6208;BME280;3137;51.550;7.060;2022-10-29T00:53:19;50168.78;;;-142.65;85.28
6208;BME280;3137;51.550;7.060;2022-10-29T00:55:47;50174.75;;;-142.65;85.57
6208;BME280;3137;51.550;7.060;2022-10-29T00:58:14;50170.78;;;-142.65;85.68
6208;BME280;3137;51.550;7.060;2022-10-29T01:00:41;50174.75;;;-142.65;85.98
6208;BME280;3137;51.550;7.060;2022-10-29T01:03:09;50168.78;;;-142.65;86.12
6208;BME280;3137;51.550;7.060;2022-10-29T01:05:36;50172.78;;;-142.65;86.30
6208;BME280;3137;51.550;7.060;2022-10-29T01:08:03;50170.78;;;-142.65;86.64
6208;BME280;3137;51.550;7.060;2022-10-29T01:21:17;50174.75;;;-142.65;87.03
6208;BME280;3137;51.550;7.060;2022-10-29T01:26:55;50168.78;;;-142.65;86.90
6208;BME280;3137;51.550;7.060;2022-10-29T01:32:41;50174.75;;;-142.65;86.33
6208;BME280;3137;51.550;7.060;2022-10-29T01:38:09;50170.78;;;-142.65;86.33
6208;BME280;3137;51.550;7.060;2022-10-29T01:45:39;50170.78;;;-142.65;86.94
6208;BME280;3137;51.550;7.060;2022-10-29T01:50:46;50172.78;;;-142.65;87.49
6208;BME280;3137;51.550;7.060;2022-10-29T01:53:15;50174.75;;;-142.65;87.88
6208;BME280;3137;51.550;7.060;2022-10-29T01:58:09;50164.81;;;-142.65;88.16
6208;BME280;3137;51.550;7.060;2022-10-29T02:06:32;50170.78;;;-142.65;88.81
6208;BME280;3137;51.550;7.060;2022-10-29T02:11:48;50170.78;;;-142.65;88.92
6208;BME280;3137;51.550;7.060;2022-10-29T02:16:57;50172.78;;;-142.65;89.00
6208;BME280;3137;51.550;7.060;2022-10-29T02:19:29;50170.78;;;-142.65;88.80
6208;BME280;3137;51.550;7.060;2022-10-29T02:21:55;50182.72;;;-142.65;88.85
6208;BME280;3137;51.550;7.060;2022-10-29T02:24:22;50164.81;;;-142.65;88.98
6208;BME280;3137;51.550;7.060;2022-10-29T02:26:50;50172.78;;;-142.65;88.88
6208;BME280;3137;51.550;7.060;2022-10-29T02:29:17;50164.81;;;-142.65;89.02
6208;BME280;3137;51.550;7.060;2022-10-29T02:31:43;50172.78;;;-142.65;89.32
6208;BME280;3137;51.550;7.060;2022-10-29T02:34:10;50174.75;;;-142.65;89.47
6208;BME280;3137;51.550;7.060;2022-10-29T02:36:36;50174.75;;;-142.65;89.41
6208;BME280;3137;51.550;7.060;2022-10-29T02:39:02;50174.75;;;-142.65;89.82
6208;BME280;3137;51.550;7.060;2022-10-29T02:41:29;50174.75;;;-142.65;89.92
6208;BME280;3137;51.550;7.060;2022-10-29T02:43:55;50180.75;;;-142.65;90.01
6208;BME280;3137;51.550;7.060;2022-10-29T02:46:22;50172.78;;;-142.65;89.85
6208;BME280;3137;51.550;7.060;2022-10-29T02:48:49;50172.78;;;-142.65;90.01
6208;BME280;3137;51.550;7.060;2022-10-29T02:51:16;50176.75;;;-142.65;89.91
6208;BME280;3137;51.550;7.060;2022-10-29T02:56:09;50174.75;;;-142.65;90.09
6208;BME280;3137;51.550;7.060;2022-10-29T02:58:36;50168.78;;;-142.65;90.12
6208;BME280;3137;51.550;7.060;2022-10-29T03:01:03;50182.72;;;-142.65;90.58
6208;BME280;3137;51.550;7.060;2022-10-29T03:05:56;50172.78;;;-142.65;91.24
6208;BME280;3137;51.550;7.060;2022-10-29T03:10:48;50172.78;;;-142.65;91.81
6208;BME280;3137;51.550;7.060;2022-10-29T03:18:11;50170.78;;;-142.65;92.05
6208;BME280;3137;51.550;7.060;2022-10-29T03:20:37;50172.78;;;-142.65;91.85
6208;BME280;3137;51.550;7.060;2022-10-29T03:23:06;50178.75;;;-142.65;91.95
6208;BME280;3137;51.550;7.060;2022-10-29T03:25:32;50168.78;;;-142.65;92.06
6208;BME280;3137;51.550;7.060;2022-10-29T03:27:59;50168.78;;;-142.65;91.99
6208;BME280;3137;51.550;7.060;2022-10-29T03:30:25;50172.78;;;-142.65;92.19
6208;BME280;3137;51.550;7.060;2022-10-29T03:32:52;50174.75;;;-142.65;92.12
6208;BME280;3137;51.550;7.060;2022-10-29T03:35:18;50170.78;;;-142.65;92.09
6208;BME280;3137;51.550;7.060;2022-10-29T03:37:48;50168.78;;;-142.65;92.19
6208;BME280;3137;51.550;7.060;2022-10-29T03:40:14;50170.78;;;-142.65;92.41
6208;BME280;3137;51.550;7.060;2022-10-29T03:42:41;50174.75;;;-142.65;92.30
6208;BME280;3137;51.550;7.060;2022-10-29T03:45:08;50172.78;;;-142.65;92.29
6208;BME280;3137;51.550;7.060;2022-10-29T03:47:35;50168.78;;;-142.65;92.54
6208;BME280;3137;51.550;7.060;2022-10-29T03:52:28;50174.75;;;-142.65;92.71
6208;BME280;3137;51.550;7.060;2022-10-29T03:54:54;50170.78;;;-142.65;92.99
6208;BME280;3137;51.550;7.060;2022-10-29T03:57:20;50170.78;;;-142.65;93.05
6208;BME280;3137;51.550;7.060;2022-10-29T03:59:47;50176.75;;;-142.65;93.26
6208;BME280;3137;51.550;7.060;2022-10-29T04:02:17;50170.78;;;-142.65;93.16
6208;BME280;3137;51.550;7.060;2022-10-29T04:04:44;50170.78;;;-142.65;93.41
6208;BME280;3137;51.550;7.060;2022-10-29T04:07:11;50170.78;;;-142.65;93.28
6208;BME280;3137;51.550;7.060;2022-10-29T04:09:37;50176.75;;;-142.65;93.63
6208;BME280;3137;51.550;7.060;2022-10-29T04:12:03;50164.81;;;-142.65;93.51
6208;BME280;3137;51.550;7.060;2022-10-29T04:14:30;50182.72;;;-142.65;93.68
6208;BME280;3137;51.550;7.060;2022-10-29T04:16:57;50168.78;;;-142.65;93.79
6208;BME280;3137;51.550;7.060;2022-10-29T04:19:23;50168.78;;;-142.65;93.89
6208;BME280;3137;51.550;7.060;2022-10-29T04:21:50;50174.75;;;-142.65;94.01
6208;BME280;3137;51.550;7.060;2022-10-29T04:24:36;50174.75;;;-142.65;93.92
6208;BME280;3137;51.550;7.060;2022-10-29T04:27:22;50168.78;;;-142.65;94.18
6208;BME280;3137;51.550;7.060;2022-10-29T04:30:09;50182.72;;;-142.65;94.68
6208;BME280;3137;51.550;7.060;2022-10-29T04:32:36;50178.75;;;-142.65;94.90
6208;BME280;3137;51.550;7.060;2022-10-29T04:35:02;50170.78;;;-142.65;95.08
6208;BME280;3137;51.550;7.060;2022-10-29T04:37:29;50168.78;;;-142.65;95.30
6208;BME280;3137;51.550;7.060;2022-10-29T04:39:55;50172.78;;;-142.65;95.33
6208;BME280;3137;51.550;7.060;2022-10-29T04:42:21;50174.75;;;-142.65;95.31
6208;BME280;3137;51.550;7.060;2022-10-29T04:44:48;50174.75;;;-142.65;95.22
6208;BME280;3137;51.550;7.060;2022-10-29T04:49:40;50182.72;;;-142.65;95.74
6208;BME280;3137;51.550;7.060;2022-10-29T04:52:07;50174.75;;;-142.65;95.67
6208;BME280;3137;51.550;7.060;2022-10-29T04:54:33;50178.75;;;-142.65;95.92
6208;BME280;3137;51.550;7.060;2022-10-29T04:56:59;50176.75;;;-142.65;95.84
6208;BME280;3137;51.550;7.060;2022-10-29T04:59:25;50168.78;;;-142.65;95.90
6208;BME280;3137;51.550;7.060;2022-10-29T05:01:52;50168.78;;;-142.65;95.97
6208;BME280;3137;51.550;7.060;2022-10-29T05:04:18;50172.78;;;-142.65;95.81
6208;BME280;3137;51.550;7.060;2022-10-29T05:06:44;50178.75;;;-142.65;96.06
6208;BME280;3137;51.550;7.060;2022-10-29T05:09:11;50174.75;;;-142.65;96.11
6208;BME280;3137;51.550;7.060;2022-10-29T05:11:37;50170.78;;;-142.65;96.11
6208;BME280;3137;51.550;7.060;2022-10-29T05:14:03;50170.78;;;-142.65;96.29
6208;BME280;3137;51.550;7.060;2022-10-29T05:16:30;50170.78;;;-142.65;96.34
6208;BME280;3137;51.550;7.060;2022-10-29T05:18:56;50170.78;;;-142.65;96.64
6208;BME280;3137;51.550;7.060;2022-10-29T05:21:22;50178.75;;;-142.65;96.62
6208;BME280;3137;51.550;7.060;2022-10-29T05:23:49;50168.78;;;-142.65;96.55
6208;BME280;3137;51.550;7.060;2022-10-29T05:26:15;50174.75;;;-142.65;96.68
6208;BME280;3137;51.550;7.060;2022-10-29T05:31:08;50184.72;;;-142.65;96.83
6208;BME280;3137;51.550;7.060;2022-10-29T05:33:34;50170.78;;;-142.65;97.07
6208;BME280;3137;51.550;7.060;2022-10-29T05:36:00;50170.78;;;-142.65;97.05
6208;BME280;3137;51.550;7.060;2022-10-29T05:40:56;50170.78;;;-142.65;97.04
6208;BME280;3137;51.550;7.060;2022-10-29T05:43:23;50170.78;;;-142.65;97.05
6208;BME280;3137;51.550;7.060;2022-10-29T05:45:49;50184.72;;;-142.65;96.94
6208;BME280;3137;51.550;7.060;2022-10-29T05:48:15;50172.78;;;-142.65;96.83
6208;BME280;3137;51.550;7.060;2022-10-29T05:50:42;50170.78;;;-142.65;97.04
6208;BME280;3137;51.550;7.060;2022-10-29T05:53:10;50170.78;;;-142.65;97.04
6208;BME280;3137;51.550;7.060;2022-10-29T05:55:38;50178.75;;;-142.65;97.10
6208;BME280;3137;51.550;7.060;2022-10-29T05:58:08;50170.78;;;-142.65;97.07
6208;BME280;3137;51.550;7.060;2022-10-29T06:00:37;50170.78;;;-142.65;96.98
6208;BME280;3137;51.550;7.060;2022-10-29T06:03:10;50174.75;;;-142.65;97.04
6208;BME280;3137;51.550;7.060;2022-10-29T06:05:37;50170.78;;;-142.65;97.05
6208;BME280;3137;51.550;7.060;2022-10-29T06:08:04;50174.75;;;-142.65;96.96
6208;BME280;3137;51.550;7.060;2022-10-29T06:10:30;50172.78;;;-142.65;96.83
6208;BME280;3137;51.550;7.060;2022-10-29T06:12:56;50170.78;;;-142.65;96.95
6208;BME280;3137;51.550;7.060;2022-10-29T06:20:18;50170.78;;;-142.65;96.93
6208;BME280;3137;51.550;7.060;2022-10-29T06:22:46;50170.78;;;-142.65;96.80
6208;BME280;3137;51.550;7.060;2022-10-29T06:25:12;50172.78;;;-142.65;96.96
6208;BME280;3137;51.550;7.060;2022-10-29T06:27:39;50170.78;;;-142.65;97.07
6208;BME280;3137;51.550;7.060;2022-10-29T06:30:06;50174.75;;;-142.65;96.97
6208;BME280;3137;51.550;7.060;2022-10-29T06:32:32;50170.78;;;-142.65;96.91
6208;BME280;3137;51.550;7.060;2022-10-29T06:34:59;50174.75;;;-142.65;96.76
6208;BME280;3137;51.550;7.060;2022-10-29T06:37:25;50174.75;;;-142.65;96.69
6208;BME280;3137;51.550;7.060;2022-10-29T06:39:51;50178.75;;;-142.65;96.73
6208;BME280;3137;51.550;7.060;2022-10-29T06:42:18;50174.75;;;-142.65;96.80
6208;BME280;3137;51.550;7.060;2022-10-29T06:44:44;50168.78;;;-142.65;96.59
6208;BME280;3137;51.550;7.060;2022-10-29T06:47:10;50182.72;;;-142.65;96.91
6208;BME280;3137;51.550;7.060;2022-10-29T06:49:37;50176.75;;;-142.65;97.14
6208;BME280;3137;51.550;7.060;2022-10-29T06:52:03;50174.75;;;-142.65;96.96
6208;BME280;3137;51.550;7.060;2022-10-29T06:54:30;50170.78;;;-142.65;96.91
6208;BME280;3137;51.550;7.060;2022-10-29T06:56:56;50170.78;;;-142.65;96.98
6208;BME280;3137;51.550;7.060;2022-10-29T07:01:49;50176.75;;;-142.65;97.01
6208;BME280;3137;51.550;7.060;2022-10-29T07:06:43;50164.81;;;-142.65;97.15
6208;BME280;3137;51.550;7.060;2022-10-29T07:09:10;50176.75;;;-142.65;97.04
6208;BME280;3137;51.550;7.060;2022-10-29T07:16:30;50172.78;;;-142.65;96.70
6208;BME280;3137;51.550;7.060;2022-10-29T07:18:57;50170.78;;;-142.65;97.02
6208;BME280;3137;51.550;7.060;2022-10-29T07:21:23;50170.78;;;-142.65;96.88
6208;BME280;3137;51.550;7.060;2022-10-29T07:26:16;50174.75;;;-142.65;96.79
6208;BME280;3137;51.550;7.060;2022-10-29T07:28:42;50170.78;;;-142.65;96.81
6208;BME280;3137;51.550;7.060;2022-10-29T07:31:08;50170.78;;;-142.65;96.91
6208;BME280;3137;51.550;7.060;2022-10-29T07:33:35;50170.78;;;-142.65;96.75
6208;BME280;3137;51.550;7.060;2022-10-29T07:36:01;50168.78;;;-142.65;96.62
6208;BME280;3137;51.550;7.060;2022-10-29T07:38:27;50170.78;;;-142.65;96.46
6208;BME280;3137;51.550;7.060;2022-10-29T07:40:54;50170.78;;;-142.65;96.18
6208;BME280;3137;51.550;7.060;2022-10-29T07:43:20;50170.78;;;-142.65;96.04
6208;BME280;3137;51.550;7.060;2022-10-29T07:45:49;50178.75;;;-142.65;95.73
6208;BME280;3137;51.550;7.060;2022-10-29T07:48:16;50172.78;;;-142.65;95.65
6208;BME280;3137;51.550;7.060;2022-10-29T07:53:09;50170.78;;;-142.65;95.63
6208;BME280;3137;51.550;7.060;2022-10-29T07:55:36;50168.78;;;-142.65;95.25
6208;BME280;3137;51.550;7.060;2022-10-29T07:58:04;50168.78;;;-142.65;94.97
6208;BME280;3137;51.550;7.060;2022-10-29T08:00:34;50170.78;;;-142.65;94.63
6208;BME280;3137;51.550;7.060;2022-10-29T08:03:00;50164.81;;;-142.65;94.50
6208;BME280;3137;51.550;7.060;2022-10-29T08:07:55;50170.78;;;-142.65;94.14
6208;BME280;3137;51.550;7.060;2022-10-29T08:10:23;50162.81;;;-142.65;93.80
6208;BME280;3137;51.550;7.060;2022-10-29T08:12:50;50170.78;;;-142.65;93.38
6208;BME280;3137;51.550;7.060;2022-10-29T08:15:17;50164.81;;;-142.65;93.18
6208;BME280;3137;51.550;7.060;2022-10-29T08:17:45;50170.78;;;-142.65;92.92
6208;BME280;3137;51.550;7.060;2022-10-29T08:20:12;50170.78;;;-142.65;92.48
6208;BME280;3137;51.550;7.060;2022-10-29T08:22:39;50170.78;;;-142.65;92.13
6208;BME280;3137;51.550;7.060;2022-10-29T08:25:06;50172.78;;;-142.65;91.89
6208;BME280;3137;51.550;7.060;2022-10-29T08:27:32;50174.75;;;-142.65;91.43
6208;BME280;3137;51.550;7.060;2022-10-29T08:29:59;50170.78;;;-142.65;91.78
6208;BME280;3137;51.550;7.060;2022-10-29T08:32:25;50170.78;;;-142.65;91.30
6208;BME280;3137;51.550;7.060;2022-10-29T08:34:51;50168.78;;;-142.65;91.06
6208;BME280;3137;51.550;7.060;2022-10-29T08:37:18;50162.81;;;-142.65;90.13
6208;BME280;3137;51.550;7.060;2022-10-29T08:39:44;50176.75;;;-142.65;90.01
6208;BME280;3137;51.550;7.060;2022-10-29T08:47:25;50170.78;;;-142.65;88.88
6208;BME280;3137;51.550;7.060;2022-10-29T08:50:22;50178.75;;;-142.65;88.80
6208;BME280;3137;51.550;7.060;2022-10-29T08:52:50;50174.75;;;-142.65;88.60
6208;BME280;3137;51.550;7.060;2022-10-29T08:55:37;50174.75;;;-142.65;87.66
6208;BME280;3137;51.550;7.060;2022-10-29T09:10:46;50164.81;;;-142.65;86.92
6208;BME280;3137;51.550;7.060;2022-10-29T09:13:28;50168.78;;;-142.65;86.82
6208;BME280;3137;51.550;7.060;2022-10-29T09:26:47;50168.78;;;-142.65;86.13
6208;BME280;3137;51.550;7.060;2022-10-29T09:34:39;50168.78;;;-142.65;85.33
6208;BME280;3137;51.550;7.060;2022-10-29T09:37:14;50168.78;;;-142.65;85.28
6208;BME280;3137;51.550;7.060;2022-10-29T09:39:43;50174.75;;;-142.65;84.92
6208;BME280;3137;51.550;7.060;2022-10-29T09:42:15;50170.78;;;-142.65;83.87
6208;BME280;3137;51.550;7.060;2022-10-29T09:47:38;50164.81;;;-142.65;82.67
6208;BME280;3137;51.550;7.060;2022-10-29T09:50:15;50172.78;;;-142.65;82.52
6208;BME280;3137;51.550;7.060;2022-10-29T09:52:47;50170.78;;;-142.65;82.50
6208;BME280;3137;51.550;7.060;2022-10-29T09:57:46;50170.78;;;-142.65;82.26
6208;BME280;3137;51.550;7.060;2022-10-29T10:00:23;50168.78;;;-142.65;81.85
6208;BME280;3137;51.550;7.060;2022-10-29T10:02:58;50164.81;;;-142.65;81.35
6208;BME280;3137;51.550;7.060;2022-10-29T10:13:18;50170.78;;;-142.65;80.06
6208;BME280;3137;51.550;7.060;2022-10-29T10:15:53;50168.78;;;-142.65;79.83
6208;BME280;3137;51.550;7.060;2022-10-29T10:23:41;50172.78;;;-142.65;79.24
6208;BME280;3137;51.550;7.060;2022-10-29T10:39:51;50164.81;;;-142.65;75.51
6208;BME280;3137;51.550;7.060;2022-10-29T10:45:13;50164.81;;;-142.65;73.79
6208;BME280;3137;51.550;7.060;2022-10-29T10:47:44;50172.78;;;-142.65;72.71
6208;BME280;3137;51.550;7.060;2022-10-29T10:50:20;50164.81;;;-142.65;72.91
6208;BME280;3137;51.550;7.060;2022-10-29T10:52:48;50168.78;;;-142.65;72.76
6208;BME280;3137;51.550;7.060;2022-10-29T10:55:32;50164.81;;;-142.65;72.39
6208;BME280;3137;51.550;7.060;2022-10-29T11:03:29;50162.81;;;-142.65;70.17
6208;BME280;3137;51.550;7.060;2022-10-29T11:13:38;50164.81;;;-142.65;67.20
6208;BME280;3137;51.550;7.060;2022-10-29T11:26:24;50168.78;;;-142.65;65.46
6208;BME280;3137;51.550;7.060;2022-10-29T11:31:39;50168.78;;;-142.65;62.61
6208;BME280;3137;51.550;7.060;2022-10-29T11:37:08;50162.81;;;-142.65;61.79
6208;BME280;3137;51.550;7.060;2022-10-29T11:39:50;50168.78;;;-142.65;63.29
6208;BME280;3137;51.550;7.060;2022-10-29T11:42:17;50170.78;;;-142.65;61.93
6208;BME280;3137;51.550;7.060;2022-10-29T11:47:43;50168.78;;;-142.65;60.63
6208;BME280;3137;51.550;7.060;2022-10-29T12:06:55;50168.78;;;-142.65;58.39
6208;BME280;3137;51.550;7.060;2022-10-29T12:38:48;50174.75;;;-142.65;60.20
6208;BME280;3137;51.550;7.060;2022-10-29T12:59:29;50164.81;;;-142.65;59.52
6208;BME280;3137;51.550;7.060;2022-10-29T13:05:11;50170.78;;;-142.65;60.03
6208;BME280;3137;51.550;7.060;2022-10-29T13:15:38;50170.78;;;-142.65;59.95
6208;BME280;3137;51.550;7.060;2022-10-29T13:18:30;50164.81;;;-142.65;58.62
6208;BME280;3137;51.550;7.060;2022-10-29T13:23:34;50168.78;;;-142.65;58.14
6208;BME280;3137;51.550;7.060;2022-10-29T13:26:07;50162.81;;;-142.65;58.42
6208;BME280;3137;51.550;7.060;2022-10-29T13:38:39;50164.81;;;-142.65;60.80
6208;BME280;3137;51.550;7.060;2022-10-29T13:41:28;50170.78;;;-142.65;61.17
6208;BME280;3137;51.550;7.060;2022-10-29T13:44:11;50170.78;;;-142.65;59.08
6208;BME280;3137;51.550;7.060;2022-10-29T13:54:36;50162.81;;;-142.65;60.45
6208;BME280;3137;51.550;7.060;2022-10-29T13:59:50;50170.78;;;-142.65;60.18
6208;BME280;3137;51.550;7.060;2022-10-29T14:07:28;50164.81;;;-142.65;60.96
6208;BME280;3137;51.550;7.060;2022-10-29T14:10:00;50168.78;;;-142.65;59.63
6208;BME280;3137;51.550;7.060;2022-10-29T14:12:29;50164.81;;;-142.65;60.33
6208;BME280;3137;51.550;7.060;2022-10-29T14:14:59;50172.78;;;-142.65;61.33
6208;BME280;3137;51.550;7.060;2022-10-29T14:19:54;50168.78;;;-142.65;61.10
6208;BME280;3137;51.550;7.060;2022-10-29T14:25:00;50162.81;;;-142.65;61.67
6208;BME280;3137;51.550;7.060;2022-10-29T14:27:28;50170.78;;;-142.65;61.00
6208;BME280;3137;51.550;7.060;2022-10-29T14:30:11;50164.81;;;-142.65;60.81
6208;BME280;3137;51.550;7.060;2022-10-29T14:32:39;50162.81;;;-142.65;60.61
6208;BME280;3137;51.550;7.060;2022-10-29T14:35:06;50164.81;;;-142.65;61.28
6208;BME280;3137;51.550;7.060;2022-10-29T14:40:16;50162.81;;;-142.65;62.21
6208;BME280;3137;51.550;7.060;2022-10-29T14:45:22;50170.78;;;-142.65;62.88
6208;BME280;3137;51.550;7.060;2022-10-29T14:55:25;50170.78;;;-142.65;63.79
6208;BME280;3137;51.550;7.060;2022-10-29T14:58:06;50164.81;;;-142.65;64.49
6208;BME280;3137;51.550;7.060;2022-10-29T15:03:05;50176.75;;;-142.65;66.01
6208;BME280;3137;51.550;7.060;2022-10-29T15:18:21;50178.75;;;-142.65;67.25
6208;BME280;3137;51.550;7.060;2022-10-29T15:20:48;50170.78;;;-142.65;67.57
6208;BME280;3137;51.550;7.060;2022-10-29T15:25:48;50168.78;;;-142.65;67.06
6208;BME280;3137;51.550;7.060;2022-10-29T15:30:46;50164.81;;;-142.65;67.13
6208;BME280;3137;51.550;7.060;2022-10-29T15:33:17;50168.78;;;-142.65;67.35
6208;BME280;3137;51.550;7.060;2022-10-29T15:35:51;50168.78;;;-142.65;67.50
6208;BME280;3137;51.550;7.060;2022-10-29T15:43:52;50170.78;;;-142.65;67.86
6208;BME280;3137;51.550;7.060;2022-10-29T15:46:21;50168.78;;;-142.65;68.53
6208;BME280;3137;51.550;7.060;2022-10-29T15:48:48;50168.78;;;-142.65;68.98
6208;BME280;3137;51.550;7.060;2022-10-29T15:51:15;50164.81;;;-142.65;69.00
6208;BME280;3137;51.550;7.060;2022-10-29T15:53:41;50162.81;;;-142.65;68.83
6208;BME280;3137;51.550;7.060;2022-10-29T16:01:05;50164.81;;;-142.65;70.00
6208;BME280;3137;51.550;7.060;2022-10-29T16:03:32;50164.81;;;-142.65;70.24
6208;BME280;3137;51.550;7.060;2022-10-29T16:06:05;50168.78;;;-142.65;70.74
6208;BME280;3137;51.550;7.060;2022-10-29T16:08:36;50168.78;;;-142.65;71.09
6208;BME280;3137;51.550;7.060;2022-10-29T16:11:05;50172.78;;;-142.65;71.35
6208;BME280;3137;51.550;7.060;2022-10-29T16:13:34;50168.78;;;-142.65;71.56
6208;BME280;3137;51.550;7.060;2022-10-29T16:16:01;50170.78;;;-142.65;71.93
6208;BME280;3137;51.550;7.060;2022-10-29T16:18:27;50162.81;;;-142.65;71.91
6208;BME280;3137;51.550;7.060;2022-10-29T16:20:58;50170.78;;;-142.65;72.53
6208;BME280;3137;51.550;7.060;2022-10-29T16:23:26;50170.78;;;-142.65;72.79
6208;BME280;3137;51.550;7.060;2022-10-29T16:28:18;50170.78;;;-142.65;73.29
6208;BME280;3137;51.550;7.060;2022-10-29T16:33:15;50170.78;;;-142.65;73.80
6208;BME280;3137;51.550;7.060;2022-10-29T16:35:42;50170.78;;;-142.65;73.83
6208;BME280;3137;51.550;7.060;2022-10-29T16:38:08;50170.78;;;-142.65;73.74
6208;BME280;3137;51.550;7.060;2022-10-29T16:40:35;50170.78;;;-142.65;74.08
6208;BME280;3137;51.550;7.060;2022-10-29T16:45:29;50170.78;;;-142.65;74.53
6208;BME280;3137;51.550;7.060;2022-10-29T16:50:33;50168.78;;;-142.65;74.69
6208;BME280;3137;51.550;7.060;2022-10-29T16:55:27;50170.78;;;-142.65;74.83
6208;BME280;3137;51.550;7.060;2022-10-29T16:57:55;50170.78;;;-142.65;74.72
6208;BME280;3137;51.550;7.060;2022-10-29T17:00:22;50174.75;;;-142.65;74.17
6208;BME280;3137;51.550;7.060;2022-10-29T17:02:51;50168.78;;;-142.65;74.05
6208;BME280;3137;51.550;7.060;2022-10-29T17:05:17;50174.75;;;-142.65;74.14
6208;BME280;3137;51.550;7.060;2022-10-29T17:07:44;50174.75;;;-142.65;74.23
6208;BME280;3137;51.550;7.060;2022-10-29T17:10:10;50174.75;;;-142.65;74.39
6208;BME280;3137;51.550;7.060;2022-10-29T17:12:36;50168.78;;;-142.65;74.59
6208;BME280;3137;51.550;7.060;2022-10-29T17:24:48;50168.78;;;-142.65;74.93
6208;BME280;3137;51.550;7.060;2022-10-29T17:27:15;50170.78;;;-142.65;74.97
6208;BME280;3137;51.550;7.060;2022-10-29T17:29:41;50172.78;;;-142.65;75.03
6208;BME280;3137;51.550;7.060;2022-10-29T17:37:00;50170.78;;;-142.65;75.49
6208;BME280;3137;51.550;7.060;2022-10-29T17:39:27;50168.78;;;-142.65;75.58
6208;BME280;3137;51.550;7.060;2022-10-29T17:44:19;50164.81;;;-142.65;76.25
6208;BME280;3137;51.550;7.060;2022-10-29T17:46:46;50170.78;;;-142.65;76.59
6208;BME280;3137;51.550;7.060;2022-10-29T17:51:38;50172.78;;;-142.65;76.83
6208;BME280;3137;51.550;7.060;2022-10-29T17:56:31;50170.78;;;-142.65;77.00
6208;BME280;3137;51.550;7.060;2022-10-29T18:01:24;50168.78;;;-142.65;77.21
6208;BME280;3137;51.550;7.060;2022-10-29T18:03:50;50168.78;;;-142.65;77.46
6208;BME280;3137;51.550;7.060;2022-10-29T18:08:43;50172.78;;;-142.65;77.78
6208;BME280;3137;51.550;7.060;2022-10-29T18:18:35;50170.78;;;-142.65;77.82
6208;BME280;3137;51.550;7.060;2022-10-29T18:21:23;50170.78;;;-142.65;78.07
6208;BME280;3137;51.550;7.060;2022-10-29T18:23:50;50168.78;;;-142.65;78.04
6208;BME280;3137;51.550;7.060;2022-10-29T18:26:34;50170.78;;;-142.65;77.84
6208;BME280;3137;51.550;7.060;2022-10-29T18:31:30;50170.78;;;-142.65;77.65
6208;BME280;3137;51.550;7.060;2022-10-29T18:36:24;50172.78;;;-142.65;77.71
6208;BME280;3137;51.550;7.060;2022-10-29T18:41:19;50180.75;;;-142.65;78.21
6208;BME280;3137;51.550;7.060;2022-10-29T18:43:45;50174.75;;;-142.65;77.77
6208;BME280;3137;51.550;7.060;2022-10-29T18:46:12;50174.75;;;-142.65;78.01
6208;BME280;3137;51.550;7.060;2022-10-29T18:51:15;50172.78;;;-142.65;77.65
6208;BME280;3137;51.550;7.060;2022-10-29T18:53:42;50170.78;;;-142.65;77.73
6208;BME280;3137;51.550;7.060;2022-10-29T18:56:13;50168.78;;;-142.65;77.40
6208;BME280;3137;51.550;7.060;2022-10-29T18:58:40;50170.78;;;-142.65;77.50
6208;BME280;3137;51.550;7.060;2022-10-29T19:01:12;50164.81;;;-142.65;77.22
6208;BME280;3137;51.550;7.060;2022-10-29T19:03:39;50174.75;;;-142.65;77.09
6208;BME280;3137;51.550;7.060;2022-10-29T19:08:40;50170.78;;;-142.65;76.72
6208;BME280;3137;51.550;7.060;2022-10-29T19:11:09;50172.78;;;-142.65;76.78
6208;BME280;3137;51.550;7.060;2022-10-29T19:13:36;50168.78;;;-142.65;77.14
6208;BME280;3137;51.550;7.060;2022-10-29T19:21:04;50170.78;;;-142.65;77.36
6208;BME280;3137;51.550;7.060;2022-10-29T19:23:31;50176.75;;;-142.65;77.43
6208;BME280;3137;51.550;7.060;2022-10-29T19:26:12;50182.72;;;-142.65;77.54
6208;BME280;3137;51.550;7.060;2022-10-29T19:28:40;50164.81;;;-142.65;77.53
6208;BME280;3137;51.550;7.060;2022-10-29T19:31:12;50172.78;;;-142.65;76.69
6208;BME280;3137;51.550;7.060;2022-10-29T19:33:40;50170.78;;;-142.65;76.14
6208;BME280;3137;51.550;7.060;2022-10-29T19:41:00;50174.75;;;-142.65;75.53
6208;BME280;3137;51.550;7.060;2022-10-29T19:43:27;50168.78;;;-142.65;75.57
6208;BME280;3137;51.550;7.060;2022-10-29T19:45:56;50170.78;;;-142.65;75.68
6208;BME280;3137;51.550;7.060;2022-10-29T19:50:53;50174.75;;;-142.65;75.65
6208;BME280;3137;51.550;7.060;2022-10-29T19:53:24;50174.75;;;-142.65;74.96
6208;BME280;3137;51.550;7.060;2022-10-29T19:55:52;50170.78;;;-142.65;74.59
6208;BME280;3137;51.550;7.060;2022-10-29T19:58:24;50170.78;;;-142.65;74.26
6208;BME280;3137;51.550;7.060;2022-10-29T20:00:51;50174.75;;;-142.65;73.80
6208;BME280;3137;51.550;7.060;2022-10-29T20:05:46;50168.78;;;-142.65;73.94
6208;BME280;3137;51.550;7.060;2022-10-29T20:08:13;50170.78;;;-142.65;74.28
6208;BME280;3137;51.550;7.060;2022-10-29T20:10:42;50170.78;;;-142.65;74.50
6208;BME280;3137;51.550;7.060;2022-10-29T20:13:08;50170.78;;;-142.65;74.69
6208;BME280;3137;51.550;7.060;2022-10-29T20:15:37;50174.75;;;-142.65;74.83
6208;BME280;3137;51.550;7.060;2022-10-29T20:20:30;50170.78;;;-142.65;75.15
6208;BME280;3137;51.550;7.060;2022-10-29T20:22:57;50174.75;;;-142.65;75.38